sensor_id;sensor_type;location;lat;lon;timestamp;temperature;humidity
22426;DHT22;11380;50.822;15.790;2022-12-13T00:01:54;-3.50;99.90
22426;DHT22;11380;50.822;15.790;2022-12-13T00:07:01;-3.50;99.90
22426;DHT22;11380;50.822;15.790;2022-12-13T00:12:07;-3.50;99.90
22426;DHT22;11380;50.822;15.790;2022-12-13T00:17:14;-3.50;99.90
22426;DHT22;11380;50.822;15.790;2022-12-13T00:22:23;-3.60;99.90
22426;DHT22;11380;50.822;15.790;2022-12-13T00:27:30;-3.70;99.90
22426;DHT22;11380;50.822;15.790;2022-12-13T00:32:37;-3.70;99.90
22426;DHT22;11380;50.822;15.790;2022-12-13T00:37:44;-3.80;99.90
22426;DHT22;11380;50.822;15.790;2022-12-13T00:42:51;-3.80;99.90
22426;DHT22;11380;50.822;15.790;2022-12-13T00:47:58;-4.00;99.90
22426;DHT22;11380;50.822;15.790;2022-12-13T00:53:04;-4.00;1.00
22426;DHT22;11380;50.822;15.790;2022-12-13T00:58:11;-4.00;1.00
22426;DHT22;11380;50.822;15.790;2022-12-13T01:03:17;-4.10;1.00
22426;DHT22;11380;50.822;15.790;2022-12-13T01:08:24;-3.90;1.00
22426;DHT22;11380;50.822;15.790;2022-12-13T01:13:33;-3.80;1.00
22426;DHT22;11380;50.822;15.790;2022-12-13T01:18:40;-3.90;1.00
22426;DHT22;11380;50.822;15.790;2022-12-13T01:23:46;-4.00;1.00
22426;DHT22;11380;50.822;15.790;2022-12-13T01:28:53;-4.00;1.00
22426;DHT22;11380;50.822;15.790;2022-12-13T01:34:00;-4.00;99.90
22426;DHT22;11380;50.822;15.790;2022-12-13T01:39:10;-4.00;1.00
22426;DHT22;11380;50.822;15.790;2022-12-13T01:50:12;-3.90;1.00
22426;DHT22;11380;50.822;15.790;2022-12-13T01:55:26;-3.90;1.00
22426;DHT22;11380;50.822;15.790;2022-12-13T02:00:35;-3.90;1.00
22426;DHT22;11380;50.822;15.790;2022-12-13T02:05:59;-3.90;99.90
22426;DHT22;11380;50.822;15.790;2022-12-13T02:10:58;-3.90;99.90
22426;DHT22;11380;50.822;15.790;2022-12-13T02:16:25;-3.80;99.90
22426;DHT22;11380;50.822;15.790;2022-12-13T02:22:06;-3.70;99.90
22426;DHT22;11380;50.822;15.790;2022-12-13T02:27:36;-3.70;99.90
22426;DHT22;11380;50.822;15.790;2022-12-13T02:33:09;-3.70;99.90
22426;DHT22;11380;50.822;15.790;2022-12-13T02:38:40;-3.60;99.90
22426;DHT22;11380;50.822;15.790;2022-12-13T02:43:55;-3.70;99.90
22426;DHT22;11380;50.822;15.790;2022-12-13T02:49:06;-3.60;99.90
22426;DHT22;11380;50.822;15.790;2022-12-13T02:54:14;-3.50;99.90
22426;DHT22;11380;50.822;15.790;2022-12-13T02:59:21;-3.60;1.00
22426;DHT22;11380;50.822;15.790;2022-12-13T03:10:27;-3.80;1.00
22426;DHT22;11380;50.822;15.790;2022-12-13T03:15:37;-3.70;1.00
22426;DHT22;11380;50.822;15.790;2022-12-13T03:20:51;-3.90;1.00
22426;DHT22;11380;50.822;15.790;2022-12-13T03:26:03;-3.90;99.90
22426;DHT22;11380;50.822;15.790;2022-12-13T03:31:17;-4.00;99.90
22426;DHT22;11380;50.822;15.790;2022-12-13T03:36:24;-4.10;99.90
22426;DHT22;11380;50.822;15.790;2022-12-13T03:41:32;-4.00;99.90
22426;DHT22;11380;50.822;15.790;2022-12-13T03:46:39;-4.10;99.00
22426;DHT22;11380;50.822;15.790;2022-12-13T03:51:46;-4.00;99.90
22426;DHT22;11380;50.822;15.790;2022-12-13T03:56:53;-4.00;1.00
22426;DHT22;11380;50.822;15.790;2022-12-13T04:01:58;-3.90;1.00
22426;DHT22;11380;50.822;15.790;2022-12-13T04:07:05;-3.90;1.00
22426;DHT22;11380;50.822;15.790;2022-12-13T04:12:14;-3.80;1.00
22426;DHT22;11380;50.822;15.790;2022-12-13T04:17:37;-3.80;1.00
22426;DHT22;11380;50.822;15.790;2022-12-13T04:22:44;-3.70;1.00
22426;DHT22;11380;50.822;15.790;2022-12-13T04:27:50;-3.70;99.90
22426;DHT22;11380;50.822;15.790;2022-12-13T04:32:57;-3.70;99.90
22426;DHT22;11380;50.822;15.790;2022-12-13T04:38:03;-3.70;99.90
22426;DHT22;11380;50.822;15.790;2022-12-13T04:43:10;-3.70;99.90
22426;DHT22;11380;50.822;15.790;2022-12-13T04:48:17;-4.00;99.90
22426;DHT22;11380;50.822;15.790;2022-12-13T04:53:25;-4.00;70.60
22426;DHT22;11380;50.822;15.790;2022-12-13T04:58:32;-4.00;31.10
22426;DHT22;11380;50.822;15.790;2022-12-13T05:03:38;-4.20;1.00
22426;DHT22;11380;50.822;15.790;2022-12-13T05:08:44;-4.10;1.00
22426;DHT22;11380;50.822;15.790;2022-12-13T05:13:51;-4.00;99.90
22426;DHT22;11380;50.822;15.790;2022-12-13T05:18:58;-4.10;16.90
22426;DHT22;11380;50.822;15.790;2022-12-13T05:24:05;-4.20;99.90
22426;DHT22;11380;50.822;15.790;2022-12-13T05:29:11;-4.20;99.90
22426;DHT22;11380;50.822;15.790;2022-12-13T05:34:18;-4.20;99.90
22426;DHT22;11380;50.822;15.790;2022-12-13T05:39:25;-4.20;99.90
22426;DHT22;11380;50.822;15.790;2022-12-13T05:44:33;-4.30;99.90
22426;DHT22;11380;50.822;15.790;2022-12-13T05:49:39;-4.40;99.90
22426;DHT22;11380;50.822;15.790;2022-12-13T05:54:47;-4.40;99.90
22426;DHT22;11380;50.822;15.790;2022-12-13T05:59:53;-4.30;99.90
22426;DHT22;11380;50.822;15.790;2022-12-13T06:04:59;-4.30;99.90
22426;DHT22;11380;50.822;15.790;2022-12-13T06:10:07;-4.40;99.90
22426;DHT22;11380;50.822;15.790;2022-12-13T06:15:14;-4.30;99.90
22426;DHT22;11380;50.822;15.790;2022-12-13T06:20:23;-4.30;99.90
22426;DHT22;11380;50.822;15.790;2022-12-13T06:25:31;-4.60;99.90
22426;DHT22;11380;50.822;15.790;2022-12-13T06:30:37;-4.60;99.90
22426;DHT22;11380;50.822;15.790;2022-12-13T06:35:45;-4.50;99.90
22426;DHT22;11380;50.822;15.790;2022-12-13T06:40:52;-4.70;99.90
22426;DHT22;11380;50.822;15.790;2022-12-13T06:46:04;-4.40;99.90
22426;DHT22;11380;50.822;15.790;2022-12-13T06:51:14;-4.50;99.90
22426;DHT22;11380;50.822;15.790;2022-12-13T06:56:23;-4.70;99.90
22426;DHT22;11380;50.822;15.790;2022-12-13T07:01:30;-4.70;99.90
22426;DHT22;11380;50.822;15.790;2022-12-13T07:06:38;-4.50;99.90
22426;DHT22;11380;50.822;15.790;2022-12-13T07:11:43;-4.50;99.90
22426;DHT22;11380;50.822;15.790;2022-12-13T07:16:51;-4.60;1.00
22426;DHT22;11380;50.822;15.790;2022-12-13T07:21:59;-4.50;1.00
22426;DHT22;11380;50.822;15.790;2022-12-13T07:27:06;-4.40;1.00
22426;DHT22;11380;50.822;15.790;2022-12-13T07:32:14;-4.40;1.00
22426;DHT22;11380;50.822;15.790;2022-12-13T07:37:23;-4.30;1.00
22426;DHT22;11380;50.822;15.790;2022-12-13T07:42:31;-4.40;99.90
22426;DHT22;11380;50.822;15.790;2022-12-13T07:47:39;-4.30;99.90
22426;DHT22;11380;50.822;15.790;2022-12-13T07:52:48;-4.40;1.00
22426;DHT22;11380;50.822;15.790;2022-12-13T07:57:54;-4.20;99.90
22426;DHT22;11380;50.822;15.790;2022-12-13T08:03:04;-4.10;1.00
22426;DHT22;11380;50.822;15.790;2022-12-13T08:08:14;-3.90;1.00
22426;DHT22;11380;50.822;15.790;2022-12-13T08:13:23;-3.90;1.00
22426;DHT22;11380;50.822;15.790;2022-12-13T08:18:30;-3.90;1.00
22426;DHT22;11380;50.822;15.790;2022-12-13T08:23:36;-3.90;1.00
22426;DHT22;11380;50.822;15.790;2022-12-13T08:28:43;-4.00;1.00
22426;DHT22;11380;50.822;15.790;2022-12-13T08:33:49;-4.00;99.90
22426;DHT22;11380;50.822;15.790;2022-12-13T08:38:56;-4.00;1.00
22426;DHT22;11380;50.822;15.790;2022-12-13T08:44:05;-3.70;1.00
22426;DHT22;11380;50.822;15.790;2022-12-13T08:49:11;-3.50;1.00
22426;DHT22;11380;50.822;15.790;2022-12-13T08:54:18;-2.70;1.00
22426;DHT22;11380;50.822;15.790;2022-12-13T08:59:26;-2.60;1.00
22426;DHT22;11380;50.822;15.790;2022-12-13T09:04:33;-2.70;1.00
22426;DHT22;11380;50.822;15.790;2022-12-13T09:09:40;-2.50;1.00
22426;DHT22;11380;50.822;15.790;2022-12-13T09:14:46;-2.40;99.90
22426;DHT22;11380;50.822;15.790;2022-12-13T09:19:53;-1.90;99.90
22426;DHT22;11380;50.822;15.790;2022-12-13T09:25:02;-1.50;99.90
22426;DHT22;11380;50.822;15.790;2022-12-13T09:30:11;-0.90;1.00
22426;DHT22;11380;50.822;15.790;2022-12-13T09:35:19;-1.30;1.00
22426;DHT22;11380;50.822;15.790;2022-12-13T09:40:27;-1.80;99.90
22426;DHT22;11380;50.822;15.790;2022-12-13T09:45:39;-2.30;1.00
22426;DHT22;11380;50.822;15.790;2022-12-13T09:50:47;-2.40;1.00
22426;DHT22;11380;50.822;15.790;2022-12-13T09:55:55;-2.40;99.90
22426;DHT22;11380;50.822;15.790;2022-12-13T10:01:04;-2.10;1.00
22426;DHT22;11380;50.822;15.790;2022-12-13T10:06:16;-2.10;1.00
22426;DHT22;11380;50.822;15.790;2022-12-13T10:11:27;-2.00;99.90
22426;DHT22;11380;50.822;15.790;2022-12-13T10:16:40;-2.10;1.00
22426;DHT22;11380;50.822;15.790;2022-12-13T10:21:47;-1.90;1.00
22426;DHT22;11380;50.822;15.790;2022-12-13T10:26:57;-1.70;1.00
22426;DHT22;11380;50.822;15.790;2022-12-13T10:32:11;-1.70;1.00
22426;DHT22;11380;50.822;15.790;2022-12-13T10:37:26;-2.00;1.00
22426;DHT22;11380;50.822;15.790;2022-12-13T10:42:37;-1.80;99.90
22426;DHT22;11380;50.822;15.790;2022-12-13T10:47:45;-1.70;1.00
22426;DHT22;11380;50.822;15.790;2022-12-13T10:52:51;-1.80;1.00
22426;DHT22;11380;50.822;15.790;2022-12-13T10:58:06;-1.80;1.00
22426;DHT22;11380;50.822;15.790;2022-12-13T11:03:32;-2.00;99.90
22426;DHT22;11380;50.822;15.790;2022-12-13T11:08:39;-1.90;1.00
22426;DHT22;11380;50.822;15.790;2022-12-13T11:13:50;-1.80;99.90
22426;DHT22;11380;50.822;15.790;2022-12-13T11:19:03;-1.80;1.00
22426;DHT22;11380;50.822;15.790;2022-12-13T11:24:20;-1.80;1.00
22426;DHT22;11380;50.822;15.790;2022-12-13T11:29:54;-1.50;1.00
22426;DHT22;11380;50.822;15.790;2022-12-13T11:35:11;-2.10;1.00
22426;DHT22;11380;50.822;15.790;2022-12-13T11:40:27;-2.40;1.00
22426;DHT22;11380;50.822;15.790;2022-12-13T11:45:46;-2.20;99.90
22426;DHT22;11380;50.822;15.790;2022-12-13T11:50:56;-2.40;99.90
22426;DHT22;11380;50.822;15.790;2022-12-13T11:56:23;-2.90;99.90
22426;DHT22;11380;50.822;15.790;2022-12-13T12:01:45;-2.30;99.90
22426;DHT22;11380;50.822;15.790;2022-12-13T12:07:02;-2.00;99.90
22426;DHT22;11380;50.822;15.790;2022-12-13T12:12:33;-1.70;99.90
22426;DHT22;11380;50.822;15.790;2022-12-13T12:17:40;-1.80;1.00
22426;DHT22;11380;50.822;15.790;2022-12-13T12:22:58;-2.30;1.00
22426;DHT22;11380;50.822;15.790;2022-12-13T12:34:04;-2.60;1.00
22426;DHT22;11380;50.822;15.790;2022-12-13T13:01:30;-2.20;99.90
22426;DHT22;11380;50.822;15.790;2022-12-13T13:06:49;-2.20;99.90
22426;DHT22;11380;50.822;15.790;2022-12-13T13:12:04;-2.40;99.90
22426;DHT22;11380;50.822;15.790;2022-12-13T13:22:36;-2.20;99.90
22426;DHT22;11380;50.822;15.790;2022-12-13T13:27:45;-2.00;99.90
22426;DHT22;11380;50.822;15.790;2022-12-13T13:32:55;-2.30;99.90
22426;DHT22;11380;50.822;15.790;2022-12-13T13:43:33;-2.60;99.90
22426;DHT22;11380;50.822;15.790;2022-12-13T14:00:08;-3.20;1.00
22426;DHT22;11380;50.822;15.790;2022-12-13T14:05:42;-3.40;99.90
22426;DHT22;11380;50.822;15.790;2022-12-13T14:22:54;-3.80;99.90
22426;DHT22;11380;50.822;15.790;2022-12-13T14:28:22;-4.00;99.90
22426;DHT22;11380;50.822;15.790;2022-12-13T14:33:33;-4.00;99.90
22426;DHT22;11380;50.822;15.790;2022-12-13T14:38:39;-4.40;99.90
22426;DHT22;11380;50.822;15.790;2022-12-13T14:43:46;-4.70;99.90
22426;DHT22;11380;50.822;15.790;2022-12-13T14:48:54;-5.00;1.00
22426;DHT22;11380;50.822;15.790;2022-12-13T14:54:03;-5.10;1.00
22426;DHT22;11380;50.822;15.790;2022-12-13T14:59:11;-5.30;1.00
22426;DHT22;11380;50.822;15.790;2022-12-13T15:04:26;-5.30;1.00
22426;DHT22;11380;50.822;15.790;2022-12-13T15:09:35;-5.80;1.00
22426;DHT22;11380;50.822;15.790;2022-12-13T15:14:45;-5.80;16.30
22426;DHT22;11380;50.822;15.790;2022-12-13T15:19:58;-5.50;99.90
22426;DHT22;11380;50.822;15.790;2022-12-13T15:25:05;-5.70;99.90
22426;DHT22;11380;50.822;15.790;2022-12-13T15:30:15;-5.80;99.90
22426;DHT22;11380;50.822;15.790;2022-12-13T15:35:29;-6.00;99.90
22426;DHT22;11380;50.822;15.790;2022-12-13T15:40:32;-6.10;1.00
22426;DHT22;11380;50.822;15.790;2022-12-13T15:45:43;-6.20;1.00
22426;DHT22;11380;50.822;15.790;2022-12-13T15:51:04;-6.30;55.80
22426;DHT22;11380;50.822;15.790;2022-12-13T15:56:37;-6.20;1.00
22426;DHT22;11380;50.822;15.790;2022-12-13T16:01:49;-6.30;1.00
22426;DHT22;11380;50.822;15.790;2022-12-13T16:06:59;-7.00;99.90
22426;DHT22;11380;50.822;15.790;2022-12-13T16:12:06;-6.90;1.00
22426;DHT22;11380;50.822;15.790;2022-12-13T16:17:25;-7.00;1.00
22426;DHT22;11380;50.822;15.790;2022-12-13T16:22:33;-7.10;1.00
22426;DHT22;11380;50.822;15.790;2022-12-13T16:27:40;-7.20;1.00
22426;DHT22;11380;50.822;15.790;2022-12-13T16:32:47;-7.20;1.00
22426;DHT22;11380;50.822;15.790;2022-12-13T16:37:56;-7.20;99.90
22426;DHT22;11380;50.822;15.790;2022-12-13T16:43:06;-7.10;99.90
22426;DHT22;11380;50.822;15.790;2022-12-13T16:48:15;-7.10;99.90
22426;DHT22;11380;50.822;15.790;2022-12-13T16:53:22;-7.30;99.90
22426;DHT22;11380;50.822;15.790;2022-12-13T16:58:30;-8.30;99.90
22426;DHT22;11380;50.822;15.790;2022-12-13T17:03:37;-8.10;99.90
22426;DHT22;11380;50.822;15.790;2022-12-13T17:08:44;-7.80;99.90
22426;DHT22;11380;50.822;15.790;2022-12-13T17:13:50;-7.80;99.90
22426;DHT22;11380;50.822;15.790;2022-12-13T17:18:59;-7.80;99.90
22426;DHT22;11380;50.822;15.790;2022-12-13T17:24:06;-7.90;99.90
22426;DHT22;11380;50.822;15.790;2022-12-13T17:29:14;-7.80;99.90
22426;DHT22;11380;50.822;15.790;2022-12-13T17:34:21;-7.80;99.90
22426;DHT22;11380;50.822;15.790;2022-12-13T17:39:26;-8.60;99.90
22426;DHT22;11380;50.822;15.790;2022-12-13T17:44:32;-9.00;1.00
22426;DHT22;11380;50.822;15.790;2022-12-13T17:49:40;-8.60;99.90
22426;DHT22;11380;50.822;15.790;2022-12-13T17:54:46;-9.50;99.90
22426;DHT22;11380;50.822;15.790;2022-12-13T17:59:53;-8.60;1.00
22426;DHT22;11380;50.822;15.790;2022-12-13T18:05:00;-8.30;1.00
22426;DHT22;11380;50.822;15.790;2022-12-13T18:10:09;-9.00;99.90
22426;DHT22;11380;50.822;15.790;2022-12-13T18:15:16;-9.70;99.90
22426;DHT22;11380;50.822;15.790;2022-12-13T18:20:23;-10.10;1.00
22426;DHT22;11380;50.822;15.790;2022-12-13T18:25:30;-10.80;99.90
22426;DHT22;11380;50.822;15.790;2022-12-13T18:30:37;-11.00;99.90
22426;DHT22;11380;50.822;15.790;2022-12-13T18:35:44;-10.20;1.00
22426;DHT22;11380;50.822;15.790;2022-12-13T18:40:51;-9.80;99.90
22426;DHT22;11380;50.822;15.790;2022-12-13T18:46:01;-10.00;1.00
22426;DHT22;11380;50.822;15.790;2022-12-13T18:51:09;-9.90;1.00
22426;DHT22;11380;50.822;15.790;2022-12-13T18:56:18;-9.80;99.90
22426;DHT22;11380;50.822;15.790;2022-12-13T19:01:25;-9.70;1.00
22426;DHT22;11380;50.822;15.790;2022-12-13T19:06:32;-9.90;1.00
22426;DHT22;11380;50.822;15.790;2022-12-13T19:11:41;-10.30;99.90
22426;DHT22;11380;50.822;15.790;2022-12-13T19:16:47;-11.00;1.00
22426;DHT22;11380;50.822;15.790;2022-12-13T19:21:56;-10.90;14.60
22426;DHT22;11380;50.822;15.790;2022-12-13T19:27:03;-11.00;99.90
22426;DHT22;11380;50.822;15.790;2022-12-13T19:32:10;-10.90;99.90
22426;DHT22;11380;50.822;15.790;2022-12-13T19:37:17;-10.70;99.90
22426;DHT22;11380;50.822;15.790;2022-12-13T19:42:25;-10.60;1.00
22426;DHT22;11380;50.822;15.790;2022-12-13T19:47:32;-10.60;1.00
22426;DHT22;11380;50.822;15.790;2022-12-13T19:52:39;-10.60;99.90
22426;DHT22;11380;50.822;15.790;2022-12-13T19:57:46;-11.40;1.00
22426;DHT22;11380;50.822;15.790;2022-12-13T20:02:53;-11.40;1.00
22426;DHT22;11380;50.822;15.790;2022-12-13T20:08:01;-11.30;1.00
22426;DHT22;11380;50.822;15.790;2022-12-13T20:13:07;-11.10;1.00
22426;DHT22;11380;50.822;15.790;2022-12-13T20:18:16;-11.00;1.00
22426;DHT22;11380;50.822;15.790;2022-12-13T20:23:23;-11.00;1.00
22426;DHT22;11380;50.822;15.790;2022-12-13T20:28:31;-11.40;1.00
22426;DHT22;11380;50.822;15.790;2022-12-13T20:33:39;-11.30;1.00
22426;DHT22;11380;50.822;15.790;2022-12-13T20:38:49;-11.40;25.20
22426;DHT22;11380;50.822;15.790;2022-12-13T20:43:58;-11.20;90.80
22426;DHT22;11380;50.822;15.790;2022-12-13T20:49:07;-11.30;1.00
22426;DHT22;11380;50.822;15.790;2022-12-13T20:54:15;-11.80;1.00
22426;DHT22;11380;50.822;15.790;2022-12-13T20:59:22;-11.60;99.90
22426;DHT22;11380;50.822;15.790;2022-12-13T21:04:28;-11.60;1.00
22426;DHT22;11380;50.822;15.790;2022-12-13T21:09:36;-11.60;99.90
22426;DHT22;11380;50.822;15.790;2022-12-13T21:14:44;-11.90;99.90
22426;DHT22;11380;50.822;15.790;2022-12-13T21:19:52;-11.50;1.00
22426;DHT22;11380;50.822;15.790;2022-12-13T21:25:00;-12.50;1.00
22426;DHT22;11380;50.822;15.790;2022-12-13T21:30:08;-12.50;99.90
22426;DHT22;11380;50.822;15.790;2022-12-13T21:35:15;-12.40;1.00
22426;DHT22;11380;50.822;15.790;2022-12-13T21:40:23;-12.30;1.00
22426;DHT22;11380;50.822;15.790;2022-12-13T21:45:32;-11.70;42.20
22426;DHT22;11380;50.822;15.790;2022-12-13T21:50:38;-12.30;1.00
22426;DHT22;11380;50.822;15.790;2022-12-13T21:55:45;-12.30;1.00
22426;DHT22;11380;50.822;15.790;2022-12-13T22:00:51;-12.00;1.00
22426;DHT22;11380;50.822;15.790;2022-12-13T22:05:59;-12.30;1.00
22426;DHT22;11380;50.822;15.790;2022-12-13T22:11:06;-12.40;1.00
22426;DHT22;11380;50.822;15.790;2022-12-13T22:16:20;-12.60;1.00
22426;DHT22;11380;50.822;15.790;2022-12-13T22:21:27;-12.50;99.90
22426;DHT22;11380;50.822;15.790;2022-12-13T22:26:36;-12.30;1.00
22426;DHT22;11380;50.822;15.790;2022-12-13T22:31:43;-13.20;1.00
22426;DHT22;11380;50.822;15.790;2022-12-13T22:36:51;-13.20;1.00
22426;DHT22;11380;50.822;15.790;2022-12-13T22:41:59;-13.30;1.00
22426;DHT22;11380;50.822;15.790;2022-12-13T22:47:05;-12.60;1.00
22426;DHT22;11380;50.822;15.790;2022-12-13T22:52:11;-12.40;1.00
22426;DHT22;11380;50.822;15.790;2022-12-13T22:57:18;-12.60;1.00
22426;DHT22;11380;50.822;15.790;2022-12-13T23:02:24;-12.70;99.90
22426;DHT22;11380;50.822;15.790;2022-12-13T23:07:31;-13.00;1.00
22426;DHT22;11380;50.822;15.790;2022-12-13T23:12:39;-12.90;34.60
22426;DHT22;11380;50.822;15.790;2022-12-13T23:18:03;-12.40;99.90
22426;DHT22;11380;50.822;15.790;2022-12-13T23:23:10;-13.00;1.00
22426;DHT22;11380;50.822;15.790;2022-12-13T23:28:15;-13.70;99.90
22426;DHT22;11380;50.822;15.790;2022-12-13T23:33:22;-13.40;1.00
22426;DHT22;11380;50.822;15.790;2022-12-13T23:38:29;-14.10;25.80
22426;DHT22;11380;50.822;15.790;2022-12-13T23:43:38;-13.40;99.90
22426;DHT22;11380;50.822;15.790;2022-12-13T23:48:45;-13.30;99.90
22426;DHT22;11380;50.822;15.790;2022-12-13T23:53:52;-13.40;99.90
22426;DHT22;11380;50.822;15.790;2022-12-13T23:59:00;-13.70;99.90
